Time;durP1;ratioP1;P1;durP2;ratioP2;P2;SDS_P1;SDS_P2;PMS_P1;PMS_P2;Temp;Humidity;BMP_temperature;BMP_pressure;BME280_temperature;BME280_humidity;BME280_pressure;Samples;Min_cycle;Max_cycle;Signal;HPM_P1;HPM_P2
2023/08/31 00:02:00;;;;;;;10.90;7.10;;;12.90;99.90;;;;;;5038918;28;20627;-81
2023/08/31 00:04:27;;;;;;;12.47;6.97;;;12.90;99.90;;;;;;5040276;28;20226;-81
2023/08/31 00:06:54;;;;;;;11.00;7.50;;;12.90;99.90;;;;;;5041965;28;20223;-81
2023/08/31 00:09:20;;;;;;;10.80;7.53;;;12.80;99.90;;;;;;5042338;28;20207;-80
2023/08/31 00:11:47;;;;;;;12.13;7.53;;;12.90;99.90;;;;;;5040312;28;20702;-81
2023/08/31 00:14:14;;;;;;;10.60;7.37;;;12.90;99.90;;;;;;5041109;28;20231;-81
2023/08/31 00:16:42;;;;;;;10.50;7.70;;;12.90;99.90;;;;;;5042144;28;20227;-81
2023/08/31 00:19:09;;;;;;;12.67;7.57;;;13.00;99.90;;;;;;5041865;28;20211;-81
2023/08/31 00:21:36;;;;;;;13.40;7.77;;;12.90;99.90;;;;;;5042246;28;20254;-82
2023/08/31 00:24:04;;;;;;;13.60;7.90;;;12.80;99.90;;;;;;5042293;28;20214;-80
2023/08/31 00:26:31;;;;;;;12.73;8.07;;;12.90;99.90;;;;;;5039899;28;20307;-81
2023/08/31 00:28:58;;;;;;;12.13;7.03;;;12.80;99.90;;;;;;5041655;28;20207;-81
2023/08/31 00:31:25;;;;;;;12.37;7.40;;;12.90;99.90;;;;;;5040790;28;20891;-81
2023/08/31 00:33:53;;;;;;;11.73;7.80;;;12.70;99.90;;;;;;5041821;28;20242;-81
2023/08/31 00:36:21;;;;;;;12.67;8.63;;;12.70;99.90;;;;;;5042056;28;20294;-81
2023/08/31 00:38:47;;;;;;;12.33;8.17;;;12.70;99.90;;;;;;5041230;28;20223;-81
2023/08/31 00:41:14;;;;;;;16.37;9.23;;;12.80;99.90;;;;;;5041442;28;20657;-80
2023/08/31 00:43:41;;;;;;;15.27;9.53;;;12.70;99.90;;;;;;5041409;28;20618;-81
2023/08/31 00:46:08;;;;;;;16.03;9.07;;;12.70;99.90;;;;;;5033805;28;20566;-81
2023/08/31 00:48:35;;;;;;;14.73;9.80;;;12.60;99.90;;;;;;5022534;28;20211;-81
2023/08/31 00:51:06;;;;;;;17.50;10.70;;;12.60;99.90;;;;;;5021442;28;20230;-80
2023/08/31 00:53:33;;;;;;;19.97;10.03;;;12.70;99.90;;;;;;5021762;28;20200;-80
2023/08/31 00:56:00;;;;;;;21.90;10.80;;;12.70;99.90;;;;;;5020336;28;20217;-82
2023/08/31 00:58:26;;;;;;;16.77;10.67;;;12.80;99.90;;;;;;5020633;28;20205;-82
2023/08/31 01:01:05;;;;;;;15.27;10.33;;;12.70;99.90;;;;;;5020934;28;20224;-82
2023/08/31 01:03:37;;;;;;;15.70;10.40;;;12.70;99.90;;;;;;5021076;28;20189;-82
2023/08/31 01:06:13;;;;;;;14.90;10.27;;;12.60;99.90;;;;;;5021625;28;20280;-80
2023/08/31 01:08:51;;;;;;;18.97;10.10;;;12.40;99.90;;;;;;5040240;28;20251;-81
2023/08/31 01:11:22;;;;;;;17.63;10.57;;;12.50;99.90;;;;;;5040760;28;20627;-82
2023/08/31 01:13:54;;;;;;;18.50;10.67;;;12.40;99.90;;;;;;5040004;28;20273;-80
2023/08/31 01:16:24;;;;;;;19.27;10.40;;;12.40;99.90;;;;;;5039181;28;20188;-81
2023/08/31 01:18:53;;;;;;;16.10;10.60;;;12.30;99.90;;;;;;5040655;28;20200;-81
2023/08/31 01:21:25;;;;;;;14.13;10.70;;;12.30;99.90;;;;;;5040792;28;20650;-82
2023/08/31 01:23:55;;;;;;;16.70;10.33;;;12.20;99.90;;;;;;5040850;28;20198;-81
2023/08/31 01:26:23;;;;;;;17.17;10.37;;;12.30;99.90;;;;;;5041358;28;20196;-80
2023/08/31 01:28:51;;;;;;;16.47;10.37;;;12.30;99.90;;;;;;5040026;28;20267;-82
2023/08/31 01:31:18;;;;;;;13.90;9.23;;;12.30;99.90;;;;;;5040350;28;20230;-80
2023/08/31 01:33:45;;;;;;;16.30;9.53;;;12.30;99.90;;;;;;5039870;28;20690;-81
2023/08/31 01:36:20;;;;;;;16.60;11.13;;;12.30;99.90;;;;;;5040579;28;20231;-80
2023/08/31 01:38:54;;;;;;;16.17;9.57;;;12.30;99.90;;;;;;5040804;28;20644;-81
2023/08/31 01:41:23;;;;;;;15.10;10.53;;;12.20;99.90;;;;;;5040362;28;20270;-82
2023/08/31 01:43:52;;;;;;;16.60;10.13;;;12.20;99.90;;;;;;5040136;28;20215;-80
2023/08/31 01:46:20;;;;;;;15.53;9.97;;;12.10;99.90;;;;;;5040140;28;20275;-82
2023/08/31 01:48:47;;;;;;;15.70;10.83;;;12.10;99.90;;;;;;5040515;28;20231;-81
2023/08/31 01:51:13;;;;;;;16.50;10.93;;;12.20;99.90;;;;;;5040139;28;20322;-81
2023/08/31 01:53:40;;;;;;;17.07;11.23;;;12.20;99.90;;;;;;5040894;28;20297;-81
2023/08/31 01:56:07;;;;;;;15.70;10.07;;;12.10;99.90;;;;;;5040211;28;20204;-81
2023/08/31 01:58:36;;;;;;;16.67;10.23;;;12.10;99.90;;;;;;5040239;28;20211;-81
2023/08/31 02:01:02;;;;;;;16.60;10.50;;;12.10;99.90;;;;;;5039608;28;20310;-80
2023/08/31 02:03:29;;;;;;;16.30;9.37;;;12.10;99.90;;;;;;5040800;28;20223;-82
2023/08/31 02:05:57;;;;;;;14.63;9.77;;;12.20;99.90;;;;;;5040606;28;20200;-82
2023/08/31 02:08:24;;;;;;;17.17;11.03;;;12.20;99.90;;;;;;5040369;28;20326;-82
2023/08/31 02:10:51;;;;;;;16.63;9.30;;;12.10;99.90;;;;;;5039659;28;20229;-81
2023/08/31 02:13:17;;;;;;;16.17;10.03;;;11.90;99.90;;;;;;5039196;28;20222;-81
2023/08/31 02:15:45;;;;;;;16.93;10.90;;;11.90;99.90;;;;;;5039556;28;20215;-81
2023/08/31 02:18:12;;;;;;;18.90;10.77;;;12.00;99.90;;;;;;5040033;28;20207;-82
2023/08/31 02:20:39;;;;;;;18.70;10.53;;;12.00;99.90;;;;;;5039059;28;20311;-80
2023/08/31 02:23:06;;;;;;;15.57;10.87;;;11.90;99.90;;;;;;5026326;28;20242;-82
2023/08/31 02:25:33;;;;;;;18.00;11.07;;;12.00;99.90;;;;;;5028893;28;20662;-81
2023/08/31 02:28:00;;;;;;;15.50;11.13;;;12.00;99.90;;;;;;5038830;28;20270;-81
2023/08/31 02:30:27;;;;;;;19.10;11.57;;;12.00;99.90;;;;;;5030634;28;20657;-81
2023/08/31 02:32:55;;;;;;;17.00;11.53;;;12.00;99.90;;;;;;5018080;28;20295;-80
2023/08/31 02:35:22;;;;;;;17.23;10.60;;;12.10;99.90;;;;;;5019974;28;20218;-79
2023/08/31 02:37:49;;;;;;;16.13;10.60;;;12.10;99.90;;;;;;5019434;28;20211;-80
2023/08/31 02:40:39;;;;;;;17.27;10.40;;;12.00;99.90;;;;;;5019662;28;20235;-80
2023/08/31 02:43:06;;;;;;;15.63;11.17;;;12.00;99.90;;;;;;5020896;28;20184;-81
2023/08/31 02:45:32;;;;;;;17.03;9.67;;;12.00;99.90;;;;;;5020644;28;20200;-80
2023/08/31 02:48:03;;;;;;;16.83;10.27;;;12.00;99.90;;;;;;5021666;28;20307;-81
2023/08/31 02:50:30;;;;;;;16.47;9.70;;;12.00;99.90;;;;;;5022029;28;20219;-84
2023/08/31 02:52:57;;;;;;;15.93;9.00;;;11.90;99.90;;;;;;5040261;28;20200;-80
2023/08/31 02:55:24;;;;;;;15.77;9.63;;;11.90;99.90;;;;;;5042405;28;20231;-82
2023/08/31 02:57:50;;;;;;;13.57;9.60;;;11.90;99.90;;;;;;5041719;28;20192;-82
2023/08/31 03:00:21;;;;;;;17.10;9.30;;;11.90;99.90;;;;;;5041451;28;20307;-82
2023/08/31 03:02:48;;;;;;;16.53;10.23;;;11.90;99.90;;;;;;5041815;28;20275;-82
2023/08/31 03:05:16;;;;;;;16.23;10.20;;;12.00;99.90;;;;;;5041706;28;20230;-80
2023/08/31 03:07:43;;;;;;;16.33;10.57;;;11.90;99.90;;;;;;5041239;28;20216;-80
2023/08/31 03:10:11;;;;;;;16.73;9.60;;;12.00;99.90;;;;;;5041348;28;20247;-82
2023/08/31 03:12:38;;;;;;;16.73;9.77;;;12.00;99.90;;;;;;5042972;28;20232;-82
2023/08/31 03:15:07;;;;;;;15.87;9.17;;;12.00;99.90;;;;;;5041523;28;20250;-80
2023/08/31 03:17:34;;;;;;;14.33;9.33;;;12.10;99.90;;;;;;5041324;28;20299;-82
2023/08/31 03:20:01;;;;;;;15.80;10.23;;;12.00;99.90;;;;;;5042969;28;20231;-82
2023/08/31 03:22:29;;;;;;;15.13;9.67;;;12.20;99.90;;;;;;5043211;28;20266;-81
2023/08/31 03:24:57;;;;;;;16.17;9.37;;;12.10;99.90;;;;;;5029817;28;20201;-81
2023/08/31 03:27:24;;;;;;;15.00;9.43;;;12.00;99.90;;;;;;5035061;28;20280;-80
2023/08/31 03:29:51;;;;;;;12.80;9.10;;;12.00;99.90;;;;;;5040335;28;20251;-81
2023/08/31 03:32:17;;;;;;;15.73;10.27;;;12.00;99.90;;;;;;5041076;28;20200;-81
2023/08/31 03:34:44;;;;;;;17.43;9.30;;;12.10;99.90;;;;;;5039142;28;20207;-82
2023/08/31 03:37:12;;;;;;;15.17;8.87;;;12.10;99.90;;;;;;5040919;28;20658;-81
2023/08/31 03:39:41;;;;;;;19.57;10.27;;;12.10;99.90;;;;;;5042456;28;20322;-83
2023/08/31 03:42:08;;;;;;;15.27;9.63;;;12.10;99.90;;;;;;5045549;28;20233;-81
2023/08/31 03:44:35;;;;;;;15.97;10.17;;;12.20;99.90;;;;;;5045144;28;20203;-81
2023/08/31 03:47:02;;;;;;;16.60;9.53;;;12.20;99.90;;;;;;5045936;28;20239;-82
2023/08/31 03:49:30;;;;;;;14.37;9.60;;;12.20;99.90;;;;;;5045599;28;20253;-82
2023/08/31 03:51:56;;;;;;;15.60;9.63;;;12.20;99.90;;;;;;5045064;28;20251;-81
2023/08/31 03:54:23;;;;;;;17.13;9.57;;;12.30;99.90;;;;;;5045664;28;20231;-82
2023/08/31 03:56:51;;;;;;;17.03;9.73;;;12.20;99.90;;;;;;5044739;28;20268;-82
2023/08/31 03:59:18;;;;;;;14.83;10.10;;;12.10;99.90;;;;;;5044203;28;20259;-81
2023/08/31 04:01:45;;;;;;;14.23;9.60;;;12.10;99.90;;;;;;5045139;28;20303;-82
2023/08/31 04:04:12;;;;;;;16.50;9.73;;;12.10;99.90;;;;;;5044658;28;20243;-82
2023/08/31 04:06:39;;;;;;;14.50;9.67;;;12.00;99.90;;;;;;5044610;28;20223;-82
2023/08/31 04:09:06;;;;;;;14.23;9.13;;;12.00;99.90;;;;;;5045367;28;20224;-81
2023/08/31 04:11:33;;;;;;;16.47;8.70;;;11.90;99.90;;;;;;5045464;28;20269;-82
2023/08/31 04:14:02;;;;;;;18.43;10.23;;;11.90;99.90;;;;;;5045637;28;20212;-82
2023/08/31 04:16:28;;;;;;;19.63;9.90;;;11.90;99.90;;;;;;5045613;28;20203;-82
2023/08/31 04:18:56;;;;;;;16.07;9.60;;;11.90;99.90;;;;;;5044662;28;20203;-82
2023/08/31 04:21:23;;;;;;;16.83;9.07;;;11.90;99.90;;;;;;5043579;28;20611;-82
2023/08/31 04:23:49;;;;;;;15.17;9.20;;;12.00;99.90;;;;;;5044687;28;20214;-82
2023/08/31 04:26:17;;;;;;;15.83;9.23;;;11.90;99.90;;;;;;5044043;28;20572;-81
2023/08/31 04:28:44;;;;;;;15.23;8.83;;;12.00;99.90;;;;;;5044683;28;20219;-82
2023/08/31 04:31:12;;;;;;;15.97;9.50;;;12.00;99.90;;;;;;5044174;28;20652;-81
2023/08/31 04:33:40;;;;;;;14.87;9.27;;;12.00;99.90;;;;;;5044324;28;20231;-82
2023/08/31 04:36:07;;;;;;;16.23;9.97;;;11.90;99.90;;;;;;5043269;28;20235;-82
2023/08/31 04:38:35;;;;;;;20.67;11.23;;;11.90;99.90;;;;;;5032298;28;20199;-82
2023/08/31 04:41:02;;;;;;;14.50;9.27;;;12.10;99.90;;;;;;5039791;28;20255;-81
2023/08/31 04:43:29;;;;;;;15.90;9.63;;;12.10;99.90;;;;;;5033178;28;20691;-81
2023/08/31 04:45:56;;;;;;;17.43;9.37;;;12.10;99.90;;;;;;5059798;28;20289;-82
2023/08/31 04:48:24;;;;;;;16.53;8.97;;;12.00;99.90;;;;;;5042546;28;20230;-81
2023/08/31 04:50:53;;;;;;;16.43;9.87;;;12.00;99.90;;;;;;5041888;28;20256;-81
2023/08/31 04:53:20;;;;;;;15.57;9.73;;;11.80;99.90;;;;;;5043295;28;20195;-81
2023/08/31 04:55:47;;;;;;;17.67;9.83;;;11.80;99.90;;;;;;5042625;28;20227;-81
2023/08/31 04:58:14;;;;;;;17.43;10.17;;;11.80;99.90;;;;;;5035270;28;20617;-82
2023/08/31 05:00:41;;;;;;;18.87;10.40;;;11.80;99.90;;;;;;5043620;28;20582;-82
2023/08/31 05:03:08;;;;;;;19.27;10.93;;;11.70;99.90;;;;;;5033277;28;20196;-82
2023/08/31 05:05:36;;;;;;;17.33;11.57;;;11.80;99.90;;;;;;5043997;28;20259;-82
2023/08/31 05:08:03;;;;;;;20.77;11.70;;;11.90;99.90;;;;;;5042767;28;20223;-82
2023/08/31 05:10:31;;;;;;;19.23;12.40;;;11.90;99.90;;;;;;5042216;28;20223;-81
2023/08/31 05:12:58;;;;;;;20.17;12.10;;;11.90;99.90;;;;;;5042149;28;20231;-81
2023/08/31 05:15:27;;;;;;;20.83;12.37;;;12.00;99.90;;;;;;5042551;28;20267;-82
2023/08/31 05:17:54;;;;;;;20.17;12.30;;;12.00;99.90;;;;;;5041903;28;20553;-82
2023/08/31 05:20:23;;;;;;;19.97;11.83;;;12.10;99.90;;;;;;5042550;28;20722;-82
2023/08/31 05:22:51;;;;;;;20.60;11.83;;;12.20;99.90;;;;;;5041030;28;20206;-82
2023/08/31 05:25:18;;;;;;;17.80;11.33;;;12.20;99.90;;;;;;5041571;28;20242;-82
2023/08/31 05:27:45;;;;;;;25.70;13.87;;;12.20;99.90;;;;;;5041817;28;20199;-81
2023/08/31 05:30:12;;;;;;;23.23;12.77;;;12.20;99.90;;;;;;5040152;28;20219;-81
2023/08/31 05:32:39;;;;;;;19.80;12.20;;;12.20;99.90;;;;;;5041835;28;20290;-82
2023/08/31 05:35:07;;;;;;;21.77;12.67;;;12.30;99.90;;;;;;5042127;28;20648;-83
2023/08/31 05:37:35;;;;;;;21.90;12.90;;;12.20;99.90;;;;;;5041340;28;20198;-81
2023/08/31 05:40:09;;;;;;;23.23;13.53;;;12.30;99.90;;;;;;5041216;28;20231;-81
2023/08/31 05:42:36;;;;;;;22.70;13.77;;;12.30;99.90;;;;;;5042317;28;20207;-81
2023/08/31 05:45:04;;;;;;;22.60;14.00;;;12.40;99.90;;;;;;5039217;28;20218;-82
2023/08/31 05:47:31;;;;;;;21.17;14.43;;;12.40;99.90;;;;;;5022899;28;20258;-82
2023/08/31 05:49:58;;;;;;;21.83;14.10;;;12.50;99.90;;;;;;5022723;28;20319;-80
2023/08/31 05:52:27;;;;;;;22.77;14.63;;;12.60;99.90;;;;;;5027294;28;20204;-82
2023/08/31 05:54:54;;;;;;;22.17;13.73;;;12.60;99.90;;;;;;5041833;28;20218;-80
2023/08/31 05:57:24;;;;;;;21.83;14.90;;;12.70;99.90;;;;;;5037665;28;20577;-82
2023/08/31 05:59:51;;;;;;;20.60;14.57;;;12.70;99.90;;;;;;5039219;28;20225;-81
2023/08/31 06:02:17;;;;;;;24.93;14.17;;;12.70;99.90;;;;;;5030263;28;20201;-82
2023/08/31 06:04:44;;;;;;;22.00;14.37;;;12.80;99.90;;;;;;5022483;28;20205;-81
2023/08/31 06:07:11;;;;;;;23.33;14.63;;;12.80;99.90;;;;;;5037718;28;20200;-81
2023/08/31 06:09:38;;;;;;;22.10;14.23;;;12.90;99.90;;;;;;5041588;28;20702;-81
2023/08/31 06:12:06;;;;;;;21.07;15.17;;;12.90;99.90;;;;;;5040810;28;20300;-81
2023/08/31 06:14:35;;;;;;;21.90;14.37;;;12.90;99.90;;;;;;5039796;28;20212;-81
2023/08/31 06:17:02;;;;;;;21.20;14.40;;;13.00;99.90;;;;;;5040990;28;20200;-81
2023/08/31 06:19:29;;;;;;;22.47;14.77;;;13.10;99.90;;;;;;5039888;28;20304;-80
2023/08/31 06:21:56;;;;;;;20.47;14.07;;;13.10;99.90;;;;;;5039132;28;20266;-81
2023/08/31 06:24:23;;;;;;;20.87;14.83;;;13.20;99.90;;;;;;5030487;28;20203;-81
2023/08/31 06:26:50;;;;;;;19.47;13.33;;;13.30;99.90;;;;;;5032135;28;20752;-81
2023/08/31 06:29:16;;;;;;;20.07;13.83;;;13.40;99.90;;;;;;5034854;28;20661;-82
2023/08/31 06:31:45;;;;;;;17.27;13.10;;;13.50;99.90;;;;;;5040863;28;20208;-81
2023/08/31 06:34:12;;;;;;;18.93;12.57;;;13.70;99.90;;;;;;5038640;28;20688;-81
2023/08/31 06:36:39;;;;;;;19.50;11.90;;;13.50;99.90;;;;;;5021238;28;20240;-81
2023/08/31 06:39:07;;;;;;;16.97;12.40;;;13.60;99.90;;;;;;5030707;28;20699;-80
2023/08/31 06:41:34;;;;;;;16.27;12.20;;;13.60;99.90;;;;;;5041936;28;20687;-81
2023/08/31 06:44:02;;;;;;;15.63;11.43;;;13.60;99.90;;;;;;5040989;28;20211;-81
2023/08/31 06:46:29;;;;;;;18.13;12.27;;;13.50;99.90;;;;;;5040813;28;20199;-81
2023/08/31 06:48:57;;;;;;;16.83;12.07;;;13.70;99.90;;;;;;5040394;28;20679;-80
2023/08/31 06:51:24;;;;;;;17.13;11.97;;;13.90;99.90;;;;;;5040304;28;20303;-81
2023/08/31 06:53:51;;;;;;;17.87;11.77;;;14.10;99.90;;;;;;5041292;28;20203;-82
2023/08/31 06:56:18;;;;;;;17.50;11.53;;;14.20;99.90;;;;;;5040361;28;20276;-81
2023/08/31 06:58:45;;;;;;;16.33;11.40;;;14.00;99.90;;;;;;5041083;28;20259;-82
2023/08/31 07:01:14;;;;;;;15.40;11.10;;;13.90;99.90;;;;;;5039873;28;20733;-81
2023/08/31 07:03:41;;;;;;;16.03;11.30;;;13.90;99.90;;;;;;5040500;28;20208;-79
2023/08/31 07:06:09;;;;;;;16.80;10.43;;;13.80;99.90;;;;;;5039107;28;20215;-82
2023/08/31 07:08:37;;;;;;;14.33;11.03;;;13.80;99.90;;;;;;5039907;28;20303;-81
2023/08/31 07:11:03;;;;;;;12.73;9.63;;;13.80;99.90;;;;;;5040438;28;20790;-81
2023/08/31 07:13:30;;;;;;;13.67;9.10;;;13.80;99.90;;;;;;5041110;28;20271;-81
2023/08/31 07:15:57;;;;;;;12.43;9.53;;;13.80;99.90;;;;;;5037915;28;20206;-82
2023/08/31 07:18:24;;;;;;;10.30;8.50;;;13.80;99.90;;;;;;5030586;28;20290;-81
2023/08/31 07:20:51;;;;;;;13.33;9.50;;;13.80;99.90;;;;;;5039776;28;20223;-81
2023/08/31 07:23:19;;;;;;;13.13;8.67;;;14.00;99.90;;;;;;5029016;28;20200;-82
2023/08/31 07:25:46;;;;;;;12.47;8.83;;;13.90;99.90;;;;;;5024219;28;20231;-82
2023/08/31 07:28:13;;;;;;;15.63;9.90;;;13.90;99.90;;;;;;5040821;28;20215;-81
2023/08/31 07:30:40;;;;;;;12.07;8.87;;;13.90;99.90;;;;;;5040756;28;20722;-81
2023/08/31 07:33:08;;;;;;;11.57;8.30;;;14.00;99.90;;;;;;5041185;28;20203;-81
2023/08/31 07:35:34;;;;;;;11.57;8.07;;;14.00;99.90;;;;;;5040462;28;20298;-82
2023/08/31 07:38:01;;;;;;;11.53;7.43;;;14.00;99.90;;;;;;5041336;28;20588;-80
2023/08/31 07:40:29;;;;;;;11.27;8.37;;;14.00;99.90;;;;;;5039850;28;20291;-82
2023/08/31 07:42:56;;;;;;;12.37;7.57;;;14.00;99.90;;;;;;5039854;28;20211;-80
2023/08/31 07:45:23;;;;;;;8.63;7.20;;;14.20;99.90;;;;;;5040426;28;20206;-81
2023/08/31 07:47:50;;;;;;;8.97;7.23;;;14.10;99.90;;;;;;5038527;28;20208;-80
2023/08/31 07:50:17;;;;;;;11.67;6.80;;;14.00;99.90;;;;;;5039438;28;20223;-82
2023/08/31 07:52:44;;;;;;;13.30;8.40;;;14.00;99.90;;;;;;5040423;28;20215;-80
2023/08/31 07:55:11;;;;;;;9.80;7.47;;;13.90;99.90;;;;;;5040337;28;20218;-82
2023/08/31 07:57:39;;;;;;;9.00;7.43;;;13.80;99.90;;;;;;5040659;28;20220;-82
2023/08/31 08:00:09;;;;;;;9.50;7.00;;;13.90;99.90;;;;;;5029931;28;20315;-83
2023/08/31 08:02:35;;;;;;;10.07;7.30;;;14.10;99.90;;;;;;5039901;28;20216;-82
2023/08/31 08:05:02;;;;;;;8.93;6.83;;;14.20;99.90;;;;;;5039695;28;20204;-80
2023/08/31 08:07:29;;;;;;;9.10;7.17;;;14.30;99.90;;;;;;5040175;28;20244;-82
2023/08/31 08:09:56;;;;;;;9.37;7.37;;;14.40;99.90;;;;;;5039449;28;20242;-81
2023/08/31 08:12:24;;;;;;;9.10;6.87;;;14.50;99.90;;;;;;5039647;28;20196;-81
2023/08/31 08:14:53;;;;;;;8.10;6.90;;;14.70;99.90;;;;;;5038431;28;20694;-81
2023/08/31 08:17:19;;;;;;;7.73;5.80;;;14.90;99.90;;;;;;5039715;28;20215;-81
2023/08/31 08:19:46;;;;;;;8.50;6.57;;;15.00;99.90;;;;;;5038631;28;20707;-81
2023/08/31 08:22:13;;;;;;;9.60;6.63;;;14.80;99.90;;;;;;5039519;28;20208;-81
2023/08/31 08:24:40;;;;;;;7.63;6.10;;;15.10;99.90;;;;;;5040093;28;20218;-82
2023/08/31 08:27:07;;;;;;;7.97;5.77;;;15.00;99.90;;;;;;5040866;28;20275;-80
2023/08/31 08:29:33;;;;;;;6.60;5.90;;;14.90;99.90;;;;;;5029973;28;20224;-80
2023/08/31 08:32:03;;;;;;;7.00;5.43;;;14.90;99.90;;;;;;5023188;28;20295;-80
2023/08/31 08:34:30;;;;;;;6.53;5.63;;;15.00;99.90;;;;;;5023077;28;20208;-79
2023/08/31 08:36:56;;;;;;;7.93;5.97;;;15.00;99.90;;;;;;5034221;28;20253;-82
2023/08/31 08:39:23;;;;;;;5.72;5.18;;;15.10;99.90;;;;;;5042177;28;20274;-82
2023/08/31 08:41:51;;;;;;;7.60;5.63;;;15.10;99.90;;;;;;5042825;28;20573;-81
2023/08/31 08:44:21;;;;;;;8.30;6.07;;;15.20;99.90;;;;;;5041664;28;20215;-80
2023/08/31 08:46:49;;;;;;;9.98;5.35;;;15.50;99.90;;;;;;5041898;28;20238;-80
2023/08/31 08:49:17;;;;;;;8.13;5.45;;;15.70;99.90;;;;;;5041265;28;20229;-82
2023/08/31 08:51:46;;;;;;;6.13;5.10;;;16.00;99.90;;;;;;5041949;28;20207;-80
2023/08/31 08:54:13;;;;;;;5.13;4.63;;;16.00;99.90;;;;;;5043905;28;20668;-81
2023/08/31 08:56:40;;;;;;;6.28;4.85;;;15.80;99.90;;;;;;5042436;28;20226;-82
2023/08/31 08:59:07;;;;;;;5.30;4.28;;;16.10;99.90;;;;;;5043365;28;20210;-82
2023/08/31 09:01:36;;;;;;;6.10;4.90;;;16.20;99.90;;;;;;5042991;28;20235;-82
2023/08/31 09:04:03;;;;;;;8.50;4.40;;;16.10;99.90;;;;;;5041623;28;20211;-81
2023/08/31 09:06:31;;;;;;;7.82;3.80;;;16.10;99.90;;;;;;5042526;28;20204;-80
2023/08/31 09:09:01;;;;;;;6.63;4.00;;;16.20;99.90;;;;;;5041941;28;20195;-82
2023/08/31 09:11:29;;;;;;;6.57;4.43;;;16.50;99.90;;;;;;5044233;28;20247;-82
2023/08/31 09:13:58;;;;;;;6.32;3.90;;;16.50;99.90;;;;;;5043750;28;20694;-81
2023/08/31 09:16:28;;;;;;;5.63;3.60;;;16.50;99.90;;;;;;5043522;28;20721;-80
2023/08/31 09:18:55;;;;;;;6.95;4.10;;;16.30;99.90;;;;;;5042851;28;20204;-81
2023/08/31 09:21:24;;;;;;;6.80;3.88;;;16.20;99.90;;;;;;5042309;28;20286;-81
2023/08/31 09:23:58;;;;;;;4.38;3.92;;;16.40;99.90;;;;;;5042101;28;20298;-81
2023/08/31 09:26:25;;;;;;;4.53;3.58;;;16.50;99.90;;;;;;5041938;28;20685;-79
2023/08/31 09:28:53;;;;;;;3.55;3.25;;;16.90;99.90;;;;;;5041313;28;20204;-80
2023/08/31 09:31:20;;;;;;;3.80;3.50;;;16.90;99.90;;;;;;5041264;28;20306;-82
2023/08/31 09:33:52;;;;;;;5.82;3.60;;;17.00;99.90;;;;;;5041674;28;20271;-82
2023/08/31 09:36:21;;;;;;;4.75;3.55;;;17.30;99.90;;;;;;5041447;28;20246;-81
2023/08/31 09:38:48;;;;;;;4.63;3.83;;;17.20;99.90;;;;;;5041668;28;20299;-79
2023/08/31 09:41:16;;;;;;;7.57;4.38;;;16.80;99.90;;;;;;5042440;28;20314;-82
2023/08/31 09:43:43;;;;;;;6.70;4.13;;;16.90;99.90;;;;;;5042287;28;20204;-82
2023/08/31 09:46:11;;;;;;;6.72;3.78;;;17.20;99.90;;;;;;5042828;28;20214;-80
2023/08/31 09:48:39;;;;;;;4.63;3.80;;;17.10;99.90;;;;;;5041190;28;20575;-81
2023/08/31 09:51:07;;;;;;;4.18;3.50;;;17.60;99.90;;;;;;5041327;28;20314;-81
2023/08/31 09:53:37;;;;;;;5.88;3.83;;;17.50;99.90;;;;;;5042105;28;20234;-80
2023/08/31 09:56:06;;;;;;;4.50;3.40;;;17.90;99.90;;;;;;5042130;28;20247;-82
2023/08/31 09:58:34;;;;;;;4.47;2.83;;;17.90;99.90;;;;;;5041100;28;20265;-80
2023/08/31 10:01:02;;;;;;;4.25;3.20;;;18.30;99.90;;;;;;5041269;28;20220;-80
2023/08/31 10:03:29;;;;;;;2.97;2.75;;;18.40;99.90;;;;;;5042141;28;20208;-82
2023/08/31 10:05:56;;;;;;;5.28;3.30;;;18.30;99.90;;;;;;5041516;28;20659;-81
2023/08/31 10:08:26;;;;;;;4.03;3.00;;;18.30;99.90;;;;;;5042160;28;20204;-79
2023/08/31 10:10:54;;;;;;;6.45;3.08;;;17.50;99.90;;;;;;5040881;28;20227;-79
2023/08/31 10:13:23;;;;;;;6.90;3.63;;;17.80;99.90;;;;;;5042380;28;20199;-81
2023/08/31 10:15:51;;;;;;;3.67;3.22;;;18.10;99.90;;;;;;5041532;28;20209;-81
2023/08/31 10:18:19;;;;;;;6.07;3.03;;;17.70;99.90;;;;;;5041070;28;20204;-79
2023/08/31 10:20:46;;;;;;;3.80;3.00;;;18.10;99.90;;;;;;5040561;28;20255;-79
2023/08/31 10:23:14;;;;;;;4.85;3.50;;;17.50;99.90;;;;;;5041627;28;20294;-81
2023/08/31 10:26:03;;;;;;;8.02;4.25;;;17.50;99.90;;;;;;5042164;28;20286;-81
2023/08/31 10:28:30;;;;;;;3.45;3.08;;;17.40;99.90;;;;;;5032637;28;20203;-82
2023/08/31 10:31:06;;;;;;;4.68;3.40;;;17.50;99.90;;;;;;5039738;28;20227;-80
2023/08/31 10:33:36;;;;;;;3.47;3.17;;;17.40;99.90;;;;;;5028978;28;20214;-80
2023/08/31 10:36:03;;;;;;;5.82;2.83;;;17.20;99.90;;;;;;5034468;28;20208;-79
2023/08/31 10:38:32;;;;;;;5.03;3.45;;;17.50;99.90;;;;;;5025577;28;20800;-82
2023/08/31 10:41:22;;;;;;;4.22;3.83;;;17.40;99.90;;;;;;5022643;28;20271;-80
2023/08/31 10:43:51;;;;;;;5.68;4.15;;;17.50;99.90;;;;;;5033838;28;20210;-81
2023/08/31 10:46:30;;;;;;;6.95;4.00;;;17.80;99.90;;;;;;5041430;28;20203;-82
2023/08/31 10:48:59;;;;;;;6.72;4.10;;;18.30;99.90;;;;;;5040965;28;20303;-79
2023/08/31 10:51:27;;;;;;;4.57;4.07;;;18.60;99.90;;;;;;5040056;28;20228;-80
2023/08/31 10:54:10;;;;;;;6.78;4.63;;;18.50;99.90;;;;;;5041502;28;20216;-80
2023/08/31 10:57:03;;;;;;;4.32;3.92;;;18.40;99.90;;;;;;5042574;28;20906;-82
2023/08/31 10:59:43;;;;;;;3.47;3.17;;;18.60;99.90;;;;;;5041165;28;20599;-82
2023/08/31 11:02:27;;;;;;;5.38;3.80;;;19.10;99.90;;;;;;5040579;28;20207;-81
2023/08/31 11:04:56;;;;;;;3.88;3.50;;;19.60;99.90;;;;;;5040911;28;20212;-81
2023/08/31 11:07:26;;;;;;;4.40;3.65;;;19.20;99.90;;;;;;5040681;28;20574;-81
2023/08/31 11:10:07;;;;;;;4.53;4.03;;;19.20;99.90;;;;;;5027166;28;20230;-81
2023/08/31 11:12:33;;;;;;;6.10;4.00;;;18.80;99.90;;;;;;5027588;28;20199;-81
2023/08/31 11:15:00;;;;;;;4.40;4.00;;;18.60;99.90;;;;;;5040760;28;20617;-80
2023/08/31 11:17:29;;;;;;;5.28;3.53;;;18.90;99.90;;;;;;5041398;28;20664;-81
2023/08/31 11:19:57;;;;;;;4.35;3.92;;;18.60;99.90;;;;;;5041843;28;20314;-82
2023/08/31 11:22:24;;;;;;;4.78;4.38;;;18.10;99.90;;;;;;5041549;28;20211;-80
2023/08/31 11:24:51;;;;;;;7.10;4.82;;;18.20;99.90;;;;;;5041889;28;20207;-80
2023/08/31 11:27:20;;;;;;;4.60;4.18;;;18.90;99.90;;;;;;5042431;28;20215;-81
2023/08/31 11:29:47;;;;;;;6.95;4.38;;;19.20;99.90;;;;;;5041448;28;20246;-78
2023/08/31 11:32:14;;;;;;;4.25;3.85;;;19.40;99.90;;;;;;5041841;28;20203;-80
2023/08/31 11:34:44;;;;;;;4.40;4.00;;;19.90;99.90;;;;;;5042999;28;20672;-80
2023/08/31 11:37:11;;;;;;;4.30;3.70;;;19.70;99.90;;;;;;5042933;28;20666;-80
2023/08/31 11:39:39;;;;;;;5.25;4.40;;;19.30;99.90;;;;;;5041590;28;20233;-79
2023/08/31 11:42:06;;;;;;;5.93;4.45;;;20.10;99.90;;;;;;5040341;28;20632;-82
2023/08/31 11:44:33;;;;;;;5.45;4.35;;;19.80;99.90;;;;;;5038061;28;20210;-79
2023/08/31 11:47:00;;;;;;;4.72;3.70;;;20.10;99.90;;;;;;5040328;28;20199;-82
2023/08/31 11:49:28;;;;;;;4.13;3.65;;;20.00;99.90;;;;;;5023235;28;20200;-81
2023/08/31 11:51:57;;;;;;;5.30;4.10;;;20.10;99.90;;;;;;5040442;28;20219;-81
2023/08/31 11:54:26;;;;;;;3.63;3.13;;;20.10;99.90;;;;;;5041185;28;20233;-79
2023/08/31 11:56:53;;;;;;;5.63;4.05;;;20.50;99.90;;;;;;5041171;28;20231;-81
2023/08/31 11:59:21;;;;;;;5.55;3.83;;;20.20;99.90;;;;;;5041066;28;20199;-80
2023/08/31 12:01:49;;;;;;;5.25;3.63;;;20.50;99.90;;;;;;5042315;28;20200;-80
2023/08/31 12:04:23;;;;;;;5.18;3.08;;;20.00;99.90;;;;;;5042398;28;20218;-81
2023/08/31 12:06:53;;;;;;;4.97;3.42;;;19.20;99.90;;;;;;5043460;28;20203;-80
2023/08/31 12:09:22;;;;;;;5.00;3.47;;;19.30;99.90;;;;;;5041382;28;20250;-81
2023/08/31 12:11:52;;;;;;;4.20;3.20;;;19.20;99.90;;;;;;5043648;28;20230;-79
2023/08/31 12:14:22;;;;;;;5.30;3.33;;;18.60;99.90;;;;;;5042918;28;20585;-81
2023/08/31 12:16:49;;;;;;;3.78;3.40;;;19.10;99.90;;;;;;5042597;28;20318;-80
2023/08/31 12:19:16;;;;;;;5.03;3.13;;;19.10;99.90;;;;;;5040092;28;20226;-79
2023/08/31 12:21:44;;;;;;;5.13;2.80;;;19.30;99.90;;;;;;5041742;28;20667;-81
2023/08/31 12:24:12;;;;;;;4.55;3.30;;;19.80;99.90;;;;;;5034665;28;20685;-81
2023/08/31 12:26:41;;;;;;;3.50;2.65;;;20.10;99.90;;;;;;5036981;28;20508;-83
2023/08/31 12:29:08;;;;;;;2.80;2.60;;;20.30;99.90;;;;;;5039442;28;20201;-83
2023/08/31 12:31:35;;;;;;;3.63;3.00;;;20.30;99.90;;;;;;5038910;28;20330;-82
2023/08/31 12:34:05;;;;;;;4.55;2.85;;;20.10;99.90;;;;;;5039858;28;20268;-80
2023/08/31 12:36:32;;;;;;;3.72;2.60;;;19.80;99.90;;;;;;5042989;28;20230;-82
2023/08/31 12:39:01;;;;;;;5.63;2.92;;;19.60;99.90;;;;;;5042890;28;20214;-79
2023/08/31 12:41:28;;;;;;;2.53;1.92;;;19.70;99.90;;;;;;5042853;28;20319;-81
2023/08/31 12:43:57;;;;;;;2.00;1.50;;;19.90;99.90;;;;;;5029498;28;20224;-81